createdAt,value
2022-09-23T00:05:20.347Z,100759.53
2022-09-23T00:08:41.333Z,100801.28
2022-09-23T00:11:58.335Z,100811.13
2022-09-23T00:19:09.704Z,100831.34
2022-09-23T00:22:48.497Z,100839.53
2022-09-23T00:26:35.713Z,100783.25
2022-09-23T00:29:45.294Z,100890.31
2022-09-23T00:33:14.577Z,100859.53
2022-09-23T00:36:45.742Z,100790.06
2022-09-23T00:40:07.040Z,100796.78
2022-09-23T00:43:24.571Z,100837.78
2022-09-23T00:46:45.465Z,100857.06
2022-09-23T00:50:29.815Z,100767.38
2022-09-23T00:54:19.333Z,100841.19
2022-09-23T00:58:40.662Z,100731.28
2022-09-23T01:01:33.567Z,100780.91
2022-09-23T01:04:42.051Z,100778.06
2022-09-23T01:07:53.157Z,100728.22
2022-09-23T01:11:43.034Z,100812.31
2022-09-23T01:15:07.827Z,100757.03
2022-09-23T01:18:47.568Z,100798.06
2022-09-23T01:22:24.455Z,100738.41
2022-09-23T01:25:37.977Z,100785.63
2022-09-23T01:29:08.058Z,100781.78
2022-09-23T01:32:36.148Z,100775.69
2022-09-23T01:36:14.105Z,100745.75
2022-09-23T01:39:38.796Z,100720.84
2022-09-23T01:43:13.195Z,100640.69
2022-09-23T01:46:35.561Z,100687.97
2022-09-23T01:49:55.241Z,100618.31
2022-09-23T01:53:09.477Z,100674.59
2022-09-23T01:56:34.349Z,100673.31
2022-09-23T01:59:48.982Z,100667.44
2022-09-23T02:03:24.261Z,100663.38
2022-09-23T02:06:51.438Z,100709.66
2022-09-23T02:10:13.378Z,100631.03
2022-09-23T02:13:31.052Z,100623.97
2022-09-23T02:16:45.123Z,100681.91
2022-09-23T02:20:05.532Z,100697.50
2022-09-23T02:24:04.076Z,100659.44
2022-09-23T02:27:32.949Z,100681.00
2022-09-23T02:30:51.579Z,100634.13
2022-09-23T02:34:16.394Z,100589.63
2022-09-23T02:37:33.092Z,100593.94
2022-09-23T02:40:57.561Z,100577.31
2022-09-23T02:44:30.938Z,100616.31
2022-09-23T02:48:03.024Z,100540.84
2022-09-23T02:51:34.634Z,100555.97
2022-09-23T02:54:46.729Z,100571.75
2022-09-23T02:57:54.517Z,100565.38
2022-09-23T03:01:58.979Z,100619.63
2022-09-23T03:05:36.738Z,100615.44
2022-09-23T03:08:58.147Z,100503.63
2022-09-23T03:12:38.156Z,100593.34
2022-09-23T03:16:06.063Z,100557.78
2022-09-23T03:19:36.146Z,100545.22
2022-09-23T03:22:56.706Z,100468.47
2022-09-23T03:26:24.849Z,100578.69
2022-09-23T03:29:30.150Z,100568.84
2022-09-23T03:32:39.273Z,100548.19
2022-09-23T03:36:16.091Z,100557.72
2022-09-23T03:39:34.340Z,100462.16
2022-09-23T03:42:51.178Z,100463.44
2022-09-23T03:46:46.781Z,100460.09
2022-09-23T03:49:54.975Z,100494.66
2022-09-23T03:53:02.454Z,100417.59
2022-09-23T03:56:07.491Z,100423.84
2022-09-23T03:59:20.760Z,100515.97
2022-09-23T04:02:39.740Z,100441.22
2022-09-23T04:06:05.573Z,100422.69
2022-09-23T04:09:41.017Z,100387.28
2022-09-23T04:13:20.988Z,100450.63
2022-09-23T04:16:36.078Z,100384.78
2022-09-23T04:19:48.493Z,100423.41
2022-09-23T04:22:53.362Z,100386.50
2022-09-23T04:25:59.526Z,100329.25
2022-09-23T04:29:07.654Z,100391.56
2022-09-23T04:32:14.545Z,100434.84
2022-09-23T04:35:21.873Z,100419.22
2022-09-23T04:38:49.413Z,100293.31
2022-09-23T04:42:04.853Z,100378.72
2022-09-23T04:45:22.637Z,100330.84
2022-09-23T04:48:44.202Z,100316.44
2022-09-23T04:51:55.274Z,100315.47
2022-09-23T04:55:26.741Z,100311.56
2022-09-23T04:58:40.589Z,100317.63
2022-09-23T05:02:06.262Z,100294.50
2022-09-23T05:05:25.331Z,100321.34
2022-09-23T05:09:16.417Z,100348.25
2022-09-23T05:12:37.609Z,100337.91
2022-09-23T05:15:55.873Z,100282.44
2022-09-23T05:19:00.794Z,100309.28
2022-09-23T05:22:06.990Z,100237.56
2022-09-23T05:25:17.101Z,100289.81
2022-09-23T05:28:38.336Z,100238.88
2022-09-23T05:31:48.333Z,100271.66
2022-09-23T05:35:01.468Z,100231.44
2022-09-23T05:38:24.434Z,100216.78
2022-09-23T05:41:36.319Z,100286.53
2022-09-23T05:45:06.740Z,100227.31
2022-09-23T05:48:36.139Z,100229.78
2022-09-23T05:51:46.953Z,100215.06
2022-09-23T05:54:51.747Z,100210.41
2022-09-23T05:58:01.146Z,100238.88
2022-09-23T06:01:18.942Z,100275.84
2022-09-23T06:04:26.835Z,100224.66
2022-09-23T06:07:41.818Z,100264.28
2022-09-23T06:10:57.139Z,100257.16
2022-09-23T06:14:03.342Z,100268.31
2022-09-23T06:17:11.239Z,100215.00
2022-09-23T06:20:16.289Z,100180.84
2022-09-23T06:23:23.944Z,100194.06
2022-09-23T06:26:34.771Z,100226.09
2022-09-23T06:30:04.006Z,100187.03
2022-09-23T06:33:32.566Z,100212.38
2022-09-23T06:37:01.766Z,100197.94
2022-09-23T06:40:16.347Z,100144.44
2022-09-23T06:43:22.531Z,100197.72
2022-09-23T06:46:31.331Z,100162.28
2022-09-23T06:49:37.103Z,100119.31
2022-09-23T06:52:59.186Z,100175.50
2022-09-23T06:56:09.185Z,100203.28
2022-09-23T06:59:27.044Z,100132.44
2022-09-23T07:02:33.650Z,100165.53
2022-09-23T07:05:40.888Z,100151.91
2022-09-23T07:08:49.323Z,100160.00
2022-09-23T07:12:06.719Z,100156.16
2022-09-23T07:15:16.382Z,100159.38
2022-09-23T07:18:27.124Z,100118.41
2022-09-23T07:21:49.370Z,100120.34
2022-09-23T07:25:05.787Z,100113.34
2022-09-23T07:28:14.788Z,100138.25
2022-09-23T07:31:35.174Z,100144.63
2022-09-23T07:34:47.295Z,100119.94
2022-09-23T07:37:53.832Z,100112.69
2022-09-23T07:41:09.842Z,100103.56
2022-09-23T07:44:21.082Z,100166.47
2022-09-23T07:47:36.379Z,100125.66
2022-09-23T07:51:03.860Z,100162.59
2022-09-23T07:54:14.053Z,100129.66
2022-09-23T07:57:19.392Z,100115.88
2022-09-23T08:00:24.258Z,100069.81
2022-09-23T08:03:33.406Z,100072.22
2022-09-23T08:06:54.343Z,100119.28
2022-09-23T08:10:07.933Z,100122.81
2022-09-23T08:13:38.231Z,100026.63
2022-09-23T08:16:48.621Z,99989.88
2022-09-23T08:19:59.004Z,100009.00
2022-09-23T08:23:12.566Z,100024.50
2022-09-23T08:26:25.101Z,100002.88
2022-09-23T08:29:34.011Z,99964.84
2022-09-23T08:32:42.076Z,100014.25
2022-09-23T08:35:57.213Z,100072.66
2022-09-23T08:39:08.012Z,99989.50
2022-09-23T08:42:34.881Z,100101.13
2022-09-23T08:46:01.584Z,100031.84
2022-09-23T08:49:19.622Z,100095.63
2022-09-23T08:52:59.892Z,100022.88
2022-09-23T08:56:28.461Z,100000.50
2022-09-23T08:59:45.689Z,100044.94
2022-09-23T09:03:00.077Z,100053.81
2022-09-23T09:06:20.598Z,99984.53
2022-09-23T09:09:46.825Z,100057.59
2022-09-23T09:13:18.354Z,100092.25
2022-09-23T09:17:01.179Z,99996.38
2022-09-23T09:20:37.937Z,100069.59
2022-09-23T09:23:52.973Z,100066.19
2022-09-23T09:26:59.574Z,100022.31
2022-09-23T09:30:04.901Z,100036.47
2022-09-23T09:33:16.817Z,99969.53
2022-09-23T09:36:36.876Z,100064.72
2022-09-23T09:39:43.538Z,99980.00
2022-09-23T09:42:50.838Z,100018.88
2022-09-23T09:46:16.812Z,100083.25
2022-09-23T09:50:02.198Z,100032.03
2022-09-23T09:53:36.644Z,99999.91
2022-09-23T09:56:44.137Z,100018.94
2022-09-23T09:59:55.932Z,100035.41
2022-09-23T10:03:11.885Z,100033.00
2022-09-23T10:06:20.495Z,99979.38
2022-09-23T10:09:35.862Z,100076.69
2022-09-23T10:12:49.863Z,100092.31
2022-09-23T10:15:57.728Z,100061.00
2022-09-23T10:19:04.844Z,100014.28
2022-09-23T10:22:25.898Z,100023.13
2022-09-23T10:25:30.734Z,99992.44
2022-09-23T10:28:51.322Z,100066.03
2022-09-23T10:32:23.340Z,100045.09
2022-09-23T10:35:30.664Z,99910.00
2022-09-23T10:38:35.571Z,99975.38
2022-09-23T10:42:23.526Z,99960.41
2022-09-23T10:45:53.348Z,100057.28
2022-09-23T10:49:19.829Z,100053.00
2022-09-23T10:52:37.252Z,100022.59
2022-09-23T10:56:09.913Z,100017.34
2022-09-23T10:59:24.374Z,100008.41
2022-09-23T11:02:40.161Z,100006.09
2022-09-23T11:06:20.018Z,99976.69
2022-09-23T11:09:34.800Z,100017.06
2022-09-23T11:12:58.294Z,99953.19
2022-09-23T11:16:23.672Z,99992.59
2022-09-23T11:19:52.475Z,99989.22
2022-09-23T11:23:23.077Z,100005.25
2022-09-23T11:27:11.460Z,99997.59
2022-09-23T11:30:21.193Z,100023.53
2022-09-23T11:33:37.645Z,99963.72
2022-09-23T11:36:56.047Z,99927.50
2022-09-23T11:40:13.792Z,99993.09
2022-09-23T11:43:29.402Z,99904.34
2022-09-23T11:46:43.091Z,99944.41
2022-09-23T11:49:56.743Z,99989.72
2022-09-23T11:53:08.818Z,99988.22
2022-09-23T11:56:45.535Z,99988.34
2022-09-23T11:59:59.422Z,99987.41
2022-09-23T12:03:06.291Z,99973.84
2022-09-23T12:06:23.795Z,99914.41
2022-09-23T12:09:58.085Z,99912.22
2022-09-23T12:13:24.674Z,99961.28
2022-09-23T12:17:10.927Z,99931.25
2022-09-23T12:20:32.129Z,99939.78
2022-09-23T12:24:04.099Z,99926.03
2022-09-23T12:27:13.424Z,99919.94
2022-09-23T12:30:24.516Z,99880.97
2022-09-23T12:33:35.095Z,99835.81
2022-09-23T12:36:43.650Z,99858.28
2022-09-23T12:40:07.725Z,99809.31
2022-09-23T12:43:33.877Z,99897.06
2022-09-23T12:47:27.928Z,99774.19
2022-09-23T12:51:01.847Z,99875.78
2022-09-23T12:54:09.831Z,99818.75
2022-09-23T12:57:36.054Z,99839.38
2022-09-23T13:00:43.886Z,99812.97
2022-09-23T13:04:12.681Z,99839.66
2022-09-23T13:07:35.041Z,99818.13
2022-09-23T13:10:56.274Z,99788.56
2022-09-23T13:14:05.466Z,99810.72
2022-09-23T13:17:44.839Z,99743.47
2022-09-23T13:20:57.289Z,99785.78
2022-09-23T13:24:29.152Z,99790.16
2022-09-23T13:27:36.839Z,99729.28
2022-09-23T13:30:56.995Z,99762.91
2022-09-23T13:34:05.827Z,99773.59
2022-09-23T13:37:23.931Z,99687.44
2022-09-23T13:40:35.359Z,99662.94
2022-09-23T13:43:45.019Z,99661.59
2022-09-23T13:46:53.272Z,99670.25
2022-09-23T13:50:02.852Z,99599.03
2022-09-23T13:53:11.297Z,99613.63
2022-09-23T13:56:17.191Z,99646.13
2022-09-23T13:59:31.865Z,99674.97
2022-09-23T14:02:45.213Z,99613.13
2022-09-23T14:05:53.505Z,99576.22
2022-09-23T14:09:09.373Z,99651.75
2022-09-23T14:12:25.077Z,99552.06
2022-09-23T14:15:38.899Z,99575.22
2022-09-23T14:18:50.481Z,99658.28
2022-09-23T14:22:12.501Z,99545.28
2022-09-23T14:25:22.653Z,99562.38
2022-09-23T14:28:29.034Z,99537.16
2022-09-23T14:31:36.232Z,99513.91
2022-09-23T14:34:45.952Z,99607.47
2022-09-23T14:38:12.970Z,99588.16
2022-09-23T14:41:27.679Z,99503.22
2022-09-23T14:44:36.075Z,99496.69
2022-09-23T14:48:06.156Z,99505.69
2022-09-23T14:51:17.040Z,99540.59
2022-09-23T14:54:44.876Z,99566.81
2022-09-23T14:57:49.947Z,99488.84
2022-09-23T15:01:02.570Z,99461.88
2022-09-23T15:04:21.620Z,99468.88
2022-09-23T15:07:27.948Z,99466.34
2022-09-23T15:10:35.846Z,99582.16
2022-09-23T15:13:50.457Z,99519.59
2022-09-23T15:16:58.504Z,99547.97
2022-09-23T15:20:23.317Z,99492.41
2022-09-23T15:23:42.440Z,99573.25
2022-09-23T15:26:55.112Z,99573.06
2022-09-23T15:30:29.618Z,99509.06
2022-09-23T15:33:35.186Z,99504.81
2022-09-23T15:36:40.811Z,99500.06
2022-09-23T15:39:48.906Z,99517.22
2022-09-23T15:43:08.344Z,99497.66
2022-09-23T15:46:23.291Z,99508.25
2022-09-23T15:49:40.472Z,99467.44
2022-09-23T15:52:54.236Z,99403.25
2022-09-23T15:56:25.932Z,99391.09
2022-09-23T15:59:36.147Z,99422.31
2022-09-23T16:02:41.923Z,99487.00
2022-09-23T16:05:50.275Z,99373.91
2022-09-23T16:09:03.570Z,99424.94
2022-09-23T16:12:14.602Z,99375.13
2022-09-23T16:15:29.886Z,99481.41
2022-09-23T16:18:42.866Z,99438.47
2022-09-23T16:21:50.836Z,99322.69
2022-09-23T16:25:05.113Z,99382.53
2022-09-23T16:28:15.954Z,99367.84
2022-09-23T16:31:31.696Z,99371.28
2022-09-23T16:34:39.498Z,99334.53
2022-09-23T16:37:50.088Z,99341.72
2022-09-23T16:41:01.656Z,99407.78
2022-09-23T16:44:09.157Z,99380.19
2022-09-23T16:47:22.693Z,99349.69
2022-09-23T16:50:27.784Z,99325.47
2022-09-23T16:53:38.480Z,99398.88
2022-09-23T16:56:50.513Z,99376.00
2022-09-23T17:00:16.690Z,99254.97
2022-09-23T17:03:44.352Z,99319.47
2022-09-23T17:06:55.493Z,99285.78
2022-09-23T17:10:14.473Z,99318.38
2022-09-23T17:13:21.909Z,99279.50
2022-09-23T17:16:31.593Z,99264.38
2022-09-23T17:19:42.184Z,99292.22
2022-09-23T17:22:46.836Z,99325.50
2022-09-23T17:25:51.626Z,99289.69
2022-09-23T17:28:57.560Z,99289.72
2022-09-23T17:32:11.443Z,99223.28
2022-09-23T17:35:23.157Z,99282.13
2022-09-23T17:38:41.541Z,99214.53
2022-09-23T17:41:46.452Z,99181.25
2022-09-23T17:45:10.217Z,99203.84
2022-09-23T17:48:23.423Z,99148.25
2022-09-23T17:51:38.609Z,99222.38
2022-09-23T17:54:56.740Z,99124.38
2022-09-23T17:58:06.724Z,99210.72
2022-09-23T18:01:47.155Z,99204.13
2022-09-23T18:04:56.573Z,99118.72
2022-09-23T18:08:06.030Z,99110.03
2022-09-23T18:11:26.513Z,99132.47
2022-09-23T18:15:38.289Z,99054.03
2022-09-23T18:18:10.131Z,99146.94
2022-09-23T18:21:18.031Z,99145.47
2022-09-23T18:24:38.243Z,99067.06
2022-09-23T18:27:50.987Z,99119.47
2022-09-23T18:31:02.580Z,98956.88
2022-09-23T18:34:20.151Z,99054.72
2022-09-23T18:37:27.735Z,99055.19
2022-09-23T18:40:48.098Z,99079.44
2022-09-23T18:44:19.691Z,99016.06
2022-09-23T18:47:57.703Z,99059.88
2022-09-23T18:51:08.151Z,99091.59
2022-09-23T18:54:37.367Z,99068.69
2022-09-23T18:57:55.200Z,99056.56
2022-09-23T19:01:10.975Z,99020.13
2022-09-23T19:04:24.515Z,99105.84
2022-09-23T19:07:36.433Z,99037.75
2022-09-23T19:10:44.181Z,99005.50
2022-09-23T19:13:56.203Z,99036.41
2022-09-23T19:17:01.403Z,99003.47
2022-09-23T19:20:08.496Z,98997.88
2022-09-23T19:23:13.143Z,98985.88
2022-09-23T19:26:23.077Z,99013.72
2022-09-23T19:29:30.783Z,98995.81
2022-09-23T19:32:40.106Z,99014.28
2022-09-23T19:35:49.840Z,98980.81
2022-09-23T19:38:58.158Z,98951.84
2022-09-23T19:42:05.619Z,99006.56
2022-09-23T19:45:19.482Z,98953.03
2022-09-23T19:48:24.330Z,98963.69
2022-09-23T19:51:30.161Z,98955.22
2022-09-23T19:54:34.640Z,98883.69
2022-09-23T19:57:44.374Z,98878.59
2022-09-23T20:00:49.390Z,98871.66
2022-09-23T20:03:54.447Z,98898.19
2022-09-23T20:07:01.926Z,98936.28
2022-09-23T20:10:08.351Z,98884.63
2022-09-23T20:13:16.145Z,98886.38
2022-09-23T20:16:22.074Z,98879.69
2022-09-23T20:19:26.784Z,98888.25
2022-09-23T20:22:35.017Z,98892.13
2022-09-23T20:25:59.359Z,98914.56
2022-09-23T20:29:04.652Z,98847.28
2022-09-23T20:32:12.545Z,98866.50
2022-09-23T20:35:18.492Z,98879.50
2022-09-23T20:38:25.898Z,98916.13
2022-09-23T20:41:32.310Z,98933.63
2022-09-23T20:44:44.061Z,98897.69
2022-09-23T20:47:51.873Z,98880.72
2022-09-23T20:51:07.405Z,98836.28
2022-09-23T20:54:14.958Z,98939.06
2022-09-23T20:57:22.881Z,98882.25
2022-09-23T21:00:30.306Z,98909.75
2022-09-23T21:03:37.918Z,98930.91
2022-09-23T21:06:42.559Z,98932.63
2022-09-23T21:09:47.119Z,98954.00
2022-09-23T21:12:55.198Z,98878.22
2022-09-23T21:16:12.169Z,98949.31
2022-09-23T21:19:16.694Z,98899.56
2022-09-23T21:22:30.745Z,98944.59
2022-09-23T21:25:37.264Z,98961.38
2022-09-23T21:28:46.064Z,98967.06
2022-09-23T21:31:53.187Z,98961.97
2022-09-23T21:35:00.750Z,99021.88
2022-09-23T21:38:07.014Z,98953.94
2022-09-23T21:41:12.475Z,99001.44
2022-09-23T21:44:17.039Z,99001.09
2022-09-23T21:47:21.470Z,99019.63
2022-09-23T21:50:39.306Z,98987.00
2022-09-23T21:53:47.654Z,99014.84
2022-09-23T21:56:55.632Z,98956.03
2022-09-23T22:00:00.338Z,99007.78
2022-09-23T22:03:09.397Z,98987.69
2022-09-23T22:06:22.345Z,99013.78
2022-09-23T22:09:27.848Z,99008.28
2022-09-23T22:12:37.241Z,98961.53
2022-09-23T22:15:42.829Z,98974.06
2022-09-23T22:18:47.557Z,99001.22
2022-09-23T22:21:53.528Z,98972.31
2022-09-23T22:24:59.570Z,98955.34
2022-09-23T22:28:23.185Z,98965.81
2022-09-23T22:31:46.121Z,98988.47
2022-09-23T22:34:52.349Z,99005.81
2022-09-23T22:38:07.521Z,98966.66
2022-09-23T22:41:17.665Z,98954.50
2022-09-23T22:44:22.819Z,98984.88
2022-09-23T22:47:33.175Z,98953.03
2022-09-23T22:51:01.188Z,98992.22
2022-09-23T22:54:07.762Z,98974.09
2022-09-23T22:57:32.577Z,98960.28
2022-09-23T23:00:50.108Z,98941.25
2022-09-23T23:04:04.751Z,98976.97
2022-09-23T23:07:21.330Z,98988.72
2022-09-23T23:10:53.452Z,98939.41
2022-09-23T23:14:34.702Z,98917.47
2022-09-23T23:17:46.190Z,98980.78
2022-09-23T23:21:16.871Z,98975.63
2022-09-23T23:24:51.734Z,99020.63
2022-09-23T23:28:25.779Z,98947.56
2022-09-23T23:31:56.466Z,99025.53
2022-09-23T23:35:17.012Z,99023.50
2022-09-23T23:39:02.456Z,99006.13
2022-09-23T23:43:07.258Z,99060.38
2022-09-23T23:46:02.484Z,98978.09
2022-09-23T23:50:19.322Z,98999.03
2022-09-23T23:53:20.532Z,99038.06
2022-09-23T23:56:26.579Z,99033.75
2022-09-23T23:59:37.340Z,98951.94
